Time;durP1;ratioP1;P1;durP2;ratioP2;P2;SDS_P1;SDS_P2;PMS_P1;PMS_P2;Temp;Humidity;BMP_temperature;BMP_pressure;BME280_temperature;BME280_humidity;BME280_pressure;Samples;Min_cycle;Max_cycle;Signal;HPM_P1;HPM_P2
2022/04/06 00:00:11;;;;;;;19.20;10.00;;;;;;;5.79;76.73;99211.30;1765740;79;98567;-64
2022/04/06 00:02:39;;;;;;;17.35;8.10;;;;;;;5.80;76.77;99228.97;1770921;79;26505;-65
2022/04/06 00:05:10;;;;;;;21.25;9.25;;;;;;;5.75;76.67;99224.34;1772120;79;98836;-65
2022/04/06 00:07:38;;;;;;;16.77;8.60;;;;;;;5.53;76.55;99209.37;1766970;79;25689;-64
2022/04/06 00:10:08;;;;;;;17.73;8.13;;;;;;;5.53;76.55;99209.37;1727848;81;29610;-65
2022/04/06 00:12:37;;;;;;;14.60;7.87;;;;;;;5.57;76.58;99230.50;1724395;81;98380;-65
2022/04/06 00:15:08;;;;;;;14.98;8.93;;;;;;;5.48;76.59;99231.77;1733818;81;25677;-64
2022/04/06 00:17:34;;;;;;;20.90;8.98;;;;;;;5.40;76.70;99226.80;1706483;82;98666;-63
2022/04/06 00:20:01;;;;;;;17.35;7.75;;;;;;;5.36;76.78;99237.17;1737327;81;25796;-64
2022/04/06 00:22:28;;;;;;;20.08;8.23;;;;;;;5.22;76.83;99228.95;1720988;80;29475;-65
2022/04/06 00:24:54;;;;;;;18.37;8.00;;;;;;;5.12;76.97;99235.16;1776729;79;98381;-65
2022/04/06 00:27:20;;;;;;;22.32;8.58;;;;;;;5.06;76.87;99237.22;1764643;79;25919;-64
2022/04/06 00:29:48;;;;;;;16.42;7.70;;;;;;;4.98;76.98;99236.69;1764529;79;98547;-64
2022/04/06 00:32:14;;;;;;;15.93;7.87;;;;;;;4.88;77.10;99227.80;1774234;79;25852;-66
2022/04/06 00:37:24;;;;;;;13.15;6.60;;;;;;;4.87;77.26;99234.03;1737732;80;98151;-64
2022/04/06 00:39:53;;;;;;;13.80;7.33;;;;;;;4.82;77.27;99229.38;1735534;81;25825;-64
2022/04/06 00:42:19;;;;;;;13.80;7.00;;;;;;;4.83;77.35;99231.58;1731201;81;98802;-64
2022/04/06 00:44:46;;;;;;;14.70;7.55;;;;;;;4.81;77.32;99227.66;1732437;81;25687;-65
2022/04/06 00:47:11;;;;;;;10.32;6.53;;;;;;;4.81;77.36;99230.77;1714083;82;98857;-64
2022/04/06 00:49:38;;;;;;;13.80;6.37;;;;;;;4.78;77.21;99230.44;1734592;81;25801;-66
2022/04/06 00:52:08;;;;;;;11.45;5.25;;;;;;;4.76;77.31;99233.63;1733272;81;26087;-64
2022/04/06 00:54:35;;;;;;;10.08;5.62;;;;;;;4.73;77.42;99235.55;1715612;80;98315;-64
2022/04/06 00:57:04;;;;;;;11.78;6.30;;;;;;;4.67;77.46;99239.78;1761224;79;25837;-64
2022/04/06 00:59:37;;;;;;;10.03;5.50;;;;;;;4.67;77.69;99244.63;1773592;79;98571;-64
2022/04/06 01:02:05;;;;;;;11.35;6.08;;;;;;;4.67;77.63;99242.44;1766111;79;25777;-63
2022/04/06 01:04:35;;;;;;;12.10;5.15;;;;;;;4.63;77.68;99242.16;1762779;79;25975;-64
2022/04/06 01:07:00;;;;;;;11.08;5.67;;;;;;;4.62;77.75;99236.45;1759593;79;98336;-64
2022/04/06 01:09:29;;;;;;;12.20;6.15;;;;;;;4.61;77.64;99234.73;1769034;79;26420;-64
2022/04/06 01:11:57;;;;;;;12.65;5.42;;;;;;;4.60;77.73;99226.38;1758481;79;98319;-64
2022/04/06 01:14:25;;;;;;;10.45;5.70;;;;;;;4.53;77.72;99233.26;1768403;79;25735;-65
2022/04/06 01:17:07;;;;;;;10.32;6.00;;;;;;;4.49;77.81;99224.16;1766503;79;25757;-64
2022/04/06 01:19:38;;;;;;;12.73;5.67;;;;;;;4.51;77.96;99222.30;1773058;79;98105;-66
2022/04/06 01:22:10;;;;;;;;;;;;;;;4.54;77.97;99223.05;1770461;79;25866;-64
2022/04/06 01:24:38;;;;;;;9.45;5.28;;;;;;;4.55;77.83;99221.25;1765201;79;83792;-64
2022/04/06 01:27:08;;;;;;;12.43;5.05;;;;;;;4.53;77.99;99220.45;1777433;79;26004;-64
2022/04/06 01:29:36;;;;;;;9.03;4.37;;;;;;;4.55;77.65;99214.62;1761934;79;98632;-64
2022/04/06 01:32:14;;;;;;;8.80;5.00;;;;;;;4.55;77.65;99214.62;1767588;79;26489;-64
2022/04/06 01:34:44;;;;;;;9.40;4.72;;;;;;;4.56;78.02;99220.33;1770339;79;25693;-66
2022/04/06 01:37:12;;;;;;;6.60;4.10;;;;;;;4.59;77.82;99214.89;1766527;79;97380;-65
2022/04/06 01:39:42;;;;;;;8.98;4.20;;;;;;;4.56;77.88;99211.04;1767931;79;25828;-64
2022/04/06 01:42:11;;;;;;;6.40;4.00;;;;;;;4.53;77.77;99212.49;1766063;79;97429;-64
2022/04/06 01:44:39;;;;;;;12.18;5.00;;;;;;;4.53;77.92;99206.72;1767425;79;26439;-64
2022/04/06 01:47:07;;;;;;;10.03;5.40;;;;;;;4.55;77.95;99206.20;1764865;79;25728;-64
2022/04/06 01:52:22;;;;;;;11.20;5.60;;;;;;;4.62;77.99;99216.09;1770817;79;26355;-66
2022/04/06 01:54:56;;;;;;;13.40;4.72;;;;;;;4.64;77.92;99214.70;1763790;79;98353;-64
2022/04/06 01:57:24;;;;;;;13.25;5.95;;;;;;;4.63;77.81;99219.14;1763616;79;25931;-63
2022/04/06 01:59:50;;;;;;;13.70;6.05;;;;;;;4.62;77.88;99217.88;1766396;79;98422;-63
2022/04/06 02:02:19;;;;;;;11.20;5.47;;;;;;;4.60;77.93;99217.95;1767769;79;27458;-63
2022/04/06 02:04:45;;;;;;;12.65;5.70;;;;;;;4.61;77.89;99218.34;1764828;79;27205;-65
2022/04/06 02:07:13;;;;;;;13.20;5.85;;;;;;;4.59;77.87;99221.52;1764846;79;98737;-65
2022/04/06 02:09:40;;;;;;;10.58;4.33;;;;;;;4.58;77.96;99229.55;1767739;79;25794;-65
2022/04/06 02:12:11;;;;;;;12.07;5.15;;;;;;;4.58;77.89;99230.87;1769236;79;98371;-65
2022/04/06 02:14:42;;;;;;;13.20;4.90;;;;;;;4.60;78.07;99224.58;1764590;79;27490;-65
2022/04/06 02:17:10;;;;;;;8.28;4.70;;;;;;;4.60;77.92;99221.06;1768138;79;25760;-63
2022/04/06 02:19:39;;;;;;;11.60;5.10;;;;;;;4.56;77.86;99225.63;1762765;79;98026;-64
2022/04/06 02:22:09;;;;;;;6.90;4.33;;;;;;;4.49;77.86;99214.88;1763341;79;25849;-64
2022/04/06 02:24:36;;;;;;;8.45;5.17;;;;;;;4.54;78.09;99216.87;1770569;79;98259;-64
2022/04/06 02:27:06;;;;;;;10.88;4.87;;;;;;;4.57;78.06;99224.70;1771226;79;27163;-64
2022/04/06 02:29:32;;;;;;;10.40;4.62;;;;;;;4.60;78.06;99222.39;1773813;79;97533;-63
2022/04/06 02:31:58;;;;;;;10.72;5.67;;;;;;;4.62;78.14;99217.88;1766696;79;26318;-64
2022/04/06 02:34:24;;;;;;;13.18;5.45;;;;;;;4.64;78.07;99216.89;1760067;79;27888;-63
2022/04/06 02:36:51;;;;;;;11.90;4.87;;;;;;;4.67;78.05;99213.24;1758449;79;97423;-63
2022/04/06 02:39:18;;;;;;;12.13;5.22;;;;;;;4.69;78.12;99218.88;1763650;79;27480;-63
2022/04/06 02:41:44;;;;;;;11.25;5.42;;;;;;;4.74;78.21;99213.38;1765692;79;98494;-63
2022/04/06 02:44:10;;;;;;;12.07;4.97;;;;;;;4.78;78.27;99201.24;1763761;79;25800;-63
2022/04/06 02:46:36;;;;;;;6.25;4.60;;;;;;;4.82;78.22;99209.47;1739670;80;25836;-64
2022/04/06 02:49:03;;;;;;;10.75;5.67;;;;;;;4.84;78.20;99214.72;1769480;79;98015;-63
2022/04/06 02:51:30;;;;;;;8.05;5.40;;;;;;;4.87;78.19;99213.26;1765298;79;27337;-62
2022/04/06 02:53:56;;;;;;;9.53;5.70;;;;;;;4.87;78.10;99212.80;1758395;79;98236;-63
2022/04/06 02:56:22;;;;;;;12.78;6.10;;;;;;;4.86;78.10;99205.76;1764121;79;25822;-63
2022/04/06 02:58:47;;;;;;;13.35;6.30;;;;;;;4.86;78.07;99204.43;1767773;79;25797;-63
2022/04/06 03:01:15;;;;;;;11.60;6.03;;;;;;;4.86;78.08;99208.87;1756796;79;98376;-64
2022/04/06 03:03:42;;;;;;;8.83;5.47;;;;;;;4.87;78.12;99203.97;1766679;79;27378;-63
2022/04/06 03:06:09;;;;;;;10.28;5.55;;;;;;;4.86;78.15;99205.76;1770651;79;98276;-64
2022/04/06 03:08:37;;;;;;;10.65;6.10;;;;;;;4.88;78.15;99205.69;1765874;79;25840;-64
2022/04/06 03:11:03;;;;;;;12.88;6.00;;;;;;;4.88;78.15;99204.37;1695724;82;25805;-63
2022/04/06 03:13:30;;;;;;;11.33;5.80;;;;;;;4.88;78.20;99206.55;1766893;79;98439;-64
2022/04/06 03:15:58;;;;;;;19.23;7.03;;;;;;;4.90;78.24;99207.81;1769646;79;27433;-63
2022/04/06 03:18:25;;;;;;;12.13;6.42;;;;;;;4.91;78.22;99207.35;1757560;79;98352;-64
2022/04/06 03:20:51;;;;;;;12.55;6.50;;;;;;;4.93;78.31;99202.84;1760234;79;25771;-63
2022/04/06 03:23:19;;;;;;;12.78;6.42;;;;;;;4.95;78.32;99197.00;1765369;79;100543;-64
2022/04/06 03:25:48;;;;;;;8.50;5.67;;;;;;;4.99;78.38;99197.27;1760634;79;25702;-65
2022/04/06 03:28:14;;;;;;;13.25;5.50;;;;;;;5.03;78.41;99197.52;1770526;79;27519;-64
2022/04/06 03:30:42;;;;;;;13.08;7.28;;;;;;;5.04;78.30;99196.59;1766704;79;98249;-64
2022/04/06 03:33:12;;;;;;;12.90;7.00;;;;;;;5.05;78.38;99203.63;1760639;79;26542;-64
2022/04/06 03:35:38;;;;;;;14.05;7.72;;;;;;;5.05;78.34;99199.65;1763163;79;98528;-64
2022/04/06 03:38:05;;;;;;;23.98;8.98;;;;;;;5.04;78.37;99195.27;1755486;79;25853;-65
2022/04/06 03:40:30;;;;;;;27.55;10.50;;;;;;;5.04;78.35;99189.49;1768286;79;29539;-64
2022/04/06 03:42:59;;;;;;;27.32;11.73;;;;;;;5.05;78.41;99191.69;1769089;79;98591;-65
2022/04/06 03:45:29;;;;;;;19.57;8.63;;;;;;;5.02;78.21;99199.31;1771013;79;26938;-64
2022/04/06 03:47:54;;;;;;;14.78;7.90;;;;;;;4.92;78.15;99196.66;1761103;79;97591;-64
2022/04/06 03:50:20;;;;;;;15.50;7.87;;;;;;;4.87;78.36;99186.71;1766464;79;26151;-64
2022/04/06 03:52:49;;;;;;;13.03;7.65;;;;;;;4.87;78.54;99193.34;1762870;79;25792;-63
2022/04/06 03:55:17;;;;;;;22.37;8.93;;;;;;;4.89;78.57;99193.68;1765645;79;98376;-64
2022/04/06 03:57:45;;;;;;;20.88;9.43;;;;;;;4.92;78.63;99189.17;1762773;79;25698;-65
2022/04/06 04:00:12;;;;;;;12.82;8.30;;;;;;;4.97;78.74;99188.03;1761025;79;98291;-64
2022/04/06 04:02:38;;;;;;;22.98;10.40;;;;;;;5.00;78.68;99193.67;1770865;79;25600;-64
2022/04/06 04:05:05;;;;;;;23.47;12.50;;;;;;;4.99;78.65;99190.63;1763189;79;27396;-63
2022/04/06 04:07:37;;;;;;;21.60;10.85;;;;;;;4.97;78.53;99181.40;1755939;79;98195;-63
2022/04/06 04:10:06;;;;;;;18.27;10.10;;;;;;;4.95;78.78;99177.95;1759994;79;26481;-64
2022/04/06 04:12:34;;;;;;;20.85;10.28;;;;;;;4.97;78.72;99179.20;1762485;79;98514;-63
2022/04/06 04:15:02;;;;;;;18.07;9.73;;;;;;;4.97;78.81;99180.53;1759576;79;25759;-63
2022/04/06 04:17:29;;;;;;;18.07;10.00;;;;;;;4.98;78.79;99183.13;1754645;79;98805;-63
2022/04/06 04:19:55;;;;;;;20.62;10.15;;;;;;;4.95;78.81;99187.70;1753256;79;25806;-65
2022/04/06 04:22:24;;;;;;;19.07;9.50;;;;;;;4.96;78.88;99180.14;1762688;79;25761;-64
2022/04/06 04:24:54;;;;;;;18.30;9.60;;;;;;;4.95;78.90;99173.10;1765733;79;98343;-63
2022/04/06 04:27:20;;;;;;;22.13;10.85;;;;;;;4.94;78.88;99180.67;1763472;79;25685;-64
2022/04/06 04:29:46;;;;;;;21.48;11.18;;;;;;;4.91;79.03;99174.16;1772707;79;98707;-65
2022/04/06 04:32:13;;;;;;;15.90;10.00;;;;;;;4.93;79.07;99170.98;1765670;79;25766;-64
2022/04/06 04:34:41;;;;;;;15.32;9.70;;;;;;;4.92;78.99;99175.42;1767897;79;25884;-64
2022/04/06 04:37:06;;;;;;;21.33;9.88;;;;;;;4.87;79.01;99183.59;1744925;79;98634;-64
2022/04/06 04:39:34;;;;;;;27.30;11.48;;;;;;;4.88;79.20;99175.16;1761993;79;25796;-63
2022/04/06 04:42:01;;;;;;;21.65;10.35;;;;;;;4.94;79.30;99178.02;1762026;79;98715;-64
2022/04/06 04:44:28;;;;;;;18.70;11.22;;;;;;;4.93;79.17;99181.13;1763781;79;26408;-64
2022/04/06 04:46:54;;;;;;;25.92;11.88;;;;;;;4.91;79.26;99179.48;1759078;79;25753;-65
2022/04/06 04:49:20;;;;;;;21.97;11.22;;;;;;;4.94;79.38;99172.70;1774723;79;98482;-65
2022/04/06 04:51:46;;;;;;;20.57;11.93;;;;;;;4.98;79.39;99176.95;1749512;79;25889;-65
2022/04/06 04:54:12;;;;;;;19.07;11.68;;;;;;;4.98;79.40;99182.27;1764909;79;98541;-64
2022/04/06 04:56:40;;;;;;;20.97;12.53;;;;;;;5.02;79.54;99179.87;1768595;79;25820;-63
2022/04/06 04:59:07;;;;;;;28.02;14.38;;;;;;;5.05;79.53;99185.05;1767137;79;25751;-65
2022/04/06 05:01:34;;;;;;;23.62;13.20;;;;;;;5.07;79.57;99186.70;1762508;79;98318;-65
2022/04/06 05:04:02;;;;;;;26.62;13.58;;;;;;;5.08;79.51;99191.08;1767574;79;25785;-64
2022/04/06 05:06:31;;;;;;;25.88;13.95;;;;;;;5.09;79.52;99193.27;1756725;79;98437;-63
2022/04/06 05:08:58;;;;;;;23.70;13.40;;;;;;;5.10;79.66;99193.20;1767271;79;34762;-63
2022/04/06 05:11:27;;;;;;;25.25;14.65;;;;;;;5.14;79.66;99193.47;1770518;79;98744;-63
2022/04/06 05:13:52;;;;;;;22.87;12.50;;;;;;;5.14;79.58;99197.45;1762324;79;25779;-63
2022/04/06 05:16:18;;;;;;;21.45;13.65;;;;;;;5.12;79.56;99196.66;1761116;79;25733;-63
2022/04/06 05:18:46;;;;;;;23.47;13.70;;;;;;;5.15;79.68;99193.00;1763851;79;97824;-64
2022/04/06 05:21:13;;;;;;;31.65;16.27;;;;;;;5.14;79.58;99193.94;1765566;79;26184;-64
2022/04/06 05:23:41;;;;;;;27.87;15.45;;;;;;;5.13;79.65;99190.88;1761344;79;98708;-64
2022/04/06 05:26:08;;;;;;;25.25;14.58;;;;;;;5.18;79.84;99202.16;1755678;79;28035;-64
2022/04/06 05:28:34;;;;;;;28.40;14.95;;;;;;;5.17;79.72;99195.13;1768068;79;26111;-64
2022/04/06 05:31:00;;;;;;;24.70;13.00;;;;;;;5.16;79.87;99200.90;1757587;79;98562;-64
2022/04/06 05:33:26;;;;;;;23.10;14.05;;;;;;;5.17;79.75;99199.97;1762884;79;25906;-64
2022/04/06 05:35:54;;;;;;;26.97;15.18;;;;;;;5.15;79.77;99209.80;1755726;79;98864;-64
2022/04/06 05:38:21;;;;;;;25.90;15.13;;;;;;;5.17;79.93;99199.11;1762356;79;26280;-64
2022/04/06 05:40:47;;;;;;;30.15;14.50;;;;;;;5.17;79.95;99188.48;1769418;79;25793;-64
2022/04/06 05:43:15;;;;;;;25.23;14.35;;;;;;;5.24;80.05;99187.24;1766719;79;98545;-64
2022/04/06 05:45:42;;;;;;;28.65;16.02;;;;;;;5.25;80.02;99193.42;1757175;79;25771;-64
2022/04/06 05:48:10;;;;;;;26.55;15.63;;;;;;;5.27;80.09;99191.09;1751895;79;98493;-65
2022/04/06 05:50:38;;;;;;;23.65;13.70;;;;;;;5.31;80.25;99195.80;1768119;79;26586;-65
2022/04/06 05:53:05;;;;;;;24.98;14.73;;;;;;;5.35;80.17;99195.59;1758518;79;25761;-65
2022/04/06 05:55:31;;;;;;;28.27;13.70;;;;;;;5.38;80.14;99198.11;1756583;79;98258;-65
2022/04/06 05:57:59;;;;;;;23.65;13.68;;;;;;;5.38;80.04;99191.47;1767058;79;26028;-66
2022/04/06 06:00:26;;;;;;;22.93;14.23;;;;;;;5.43;80.35;99204.08;1764623;79;98507;-66
2022/04/06 06:02:56;;;;;;;21.87;12.50;;;;;;;5.51;80.40;99197.09;1762926;79;25841;-65
2022/04/06 06:05:26;;;;;;;21.60;12.68;;;;;;;5.51;80.17;99198.41;1759939;79;98581;-66
2022/04/06 06:07:52;;;;;;;24.27;13.60;;;;;;;5.54;80.42;99192.96;1760779;79;27510;-63
2022/04/06 06:10:21;;;;;;;30.50;16.23;;;;;;;5.58;80.43;99196.34;1758951;79;25805;-64
2022/04/06 06:12:49;;;;;;;29.10;16.00;;;;;;;5.66;80.50;99198.17;1760264;79;98590;-64
2022/04/06 06:15:16;;;;;;;24.98;14.10;;;;;;;5.72;80.54;99197.42;1763023;79;25912;-65
2022/04/06 06:17:44;;;;;;;23.60;12.98;;;;;;;5.81;80.57;99196.13;1758212;79;98716;-64
2022/04/06 06:20:11;;;;;;;26.90;15.83;;;;;;;5.86;80.57;99191.46;1760343;79;27417;-64
2022/04/06 06:22:38;;;;;;;26.20;16.15;;;;;;;5.96;80.66;99199.90;1760773;79;25824;-65
2022/04/06 06:25:06;;;;;;;28.77;16.73;;;;;;;6.03;80.75;99199.53;1754088;79;98551;-64
2022/04/06 06:27:42;;;;;;;31.60;17.12;;;;;;;6.11;80.79;99198.70;1758871;79;25793;-69
2022/04/06 06:30:12;;;;;;;33.25;20.37;;;;;;;6.23;80.75;99198.57;1754697;79;98513;-69
2022/04/06 06:32:40;;;;;;;31.55;19.70;;;;;;;6.31;80.79;99196.87;1761200;79;28153;-65
2022/04/06 06:35:08;;;;;;;30.68;20.32;;;;;;;6.37;80.74;99197.89;1762249;79;26105;-64
2022/04/06 06:37:37;;;;;;;28.77;17.77;;;;;;;6.43;80.84;99196.27;1763608;79;98423;-64
2022/04/06 06:40:07;;;;;;;40.85;21.27;;;;;;;6.44;80.80;99194.86;1756720;79;26596;-65
2022/04/06 06:42:34;;;;;;;31.80;19.45;;;;;;;6.53;81.07;99195.34;1758182;79;98432;-66
2022/04/06 06:45:01;;;;;;;27.45;17.75;;;;;;;6.66;81.40;99191.98;1761694;79;27700;-64
2022/04/06 06:47:29;;;;;;;26.25;16.42;;;;;;;6.86;81.53;99189.63;1757281;79;98734;-66
2022/04/06 06:49:56;;;;;;;23.52;14.75;;;;;;;7.16;82.77;99192.04;1765329;79;26508;-65
2022/04/06 06:52:24;;;;;;;21.23;14.90;;;;;;;7.49;82.43;99196.05;1767287;79;26570;-64
2022/04/06 06:54:53;;;;;;;18.07;12.70;;;;;;;7.77;82.74;99201.22;1759371;79;98725;-68
2022/04/06 06:57:22;;;;;;;20.80;11.83;;;;;;;7.99;82.61;99199.05;1761758;79;28272;-64
2022/04/06 06:59:52;;;;;;;18.50;13.00;;;;;;;8.13;82.90;99204.95;1762637;79;98854;-65
2022/04/06 07:02:18;;;;;;;17.20;11.20;;;;;;;8.23;82.88;99201.28;1768839;79;25875;-65
2022/04/06 07:04:44;;;;;;;20.32;13.53;;;;;;;8.28;82.83;99196.08;1759751;79;25864;-64
2022/04/06 07:07:09;;;;;;;20.40;13.20;;;;;;;8.31;82.79;99200.37;1762961;79;98558;-64
2022/04/06 07:09:37;;;;;;;18.50;12.33;;;;;;;8.34;83.59;99185.55;1752623;79;29526;-64
2022/04/06 07:12:04;;;;;;;18.07;11.88;;;;;;;8.39;83.29;99195.49;1759158;79;98804;-63
2022/04/06 07:14:30;;;;;;;15.15;10.82;;;;;;;8.48;83.42;99199.44;1770162;79;25749;-64
2022/04/06 07:16:56;;;;;;;16.75;11.57;;;;;;;8.55;83.33;99202.14;1754131;79;26387;-65
2022/04/06 07:19:22;;;;;;;17.80;11.70;;;;;;;8.61;83.41;99204.45;1756005;79;98848;-64
2022/04/06 07:21:49;;;;;;;15.53;11.50;;;;;;;8.63;83.59;99202.08;1763339;79;27507;-64
2022/04/06 07:24:16;;;;;;;16.65;11.22;;;;;;;8.64;83.83;99208.29;1768354;79;98820;-64
2022/04/06 07:26:42;;;;;;;16.23;10.85;;;;;;;8.60;83.80;99208.08;1764260;79;26540;-64
2022/04/06 07:29:11;;;;;;;15.65;10.45;;;;;;;8.60;84.13;99210.28;1760642;79;25790;-65
2022/04/06 07:31:38;;;;;;;13.20;9.68;;;;;;;8.67;84.44;99210.30;1745433;79;98746;-65
2022/04/06 07:34:05;;;;;;;15.68;10.72;;;;;;;8.72;84.70;99206.89;1737287;82;27465;-66
2022/04/06 07:36:37;;;;;;;13.57;10.90;;;;;;;8.71;84.62;99200.30;1735588;81;98623;-64
2022/04/06 07:39:05;;;;;;;14.23;10.20;;;;;;;8.73;84.79;99209.95;1736838;82;25655;-63
2022/04/06 07:41:32;;;;;;;17.17;9.23;;;;;;;8.76;84.80;99211.58;1735717;81;98936;-64
2022/04/06 07:44:00;;;;;;;16.90;9.98;;;;;;;8.81;85.06;99208.64;1737285;82;25771;-64
2022/04/06 07:46:28;;;;;;;17.82;10.50;;;;;;;8.88;85.14;99205.98;1737326;82;27999;-65
2022/04/06 07:48:56;;;;;;;14.83;10.20;;;;;;;8.94;85.12;99211.83;1735970;81;98876;-65
2022/04/06 07:51:24;;;;;;;13.98;10.05;;;;;;;8.99;85.29;99213.75;1736963;82;25658;-63
2022/04/06 07:53:50;;;;;;;11.73;8.50;;;;;;;9.03;85.49;99207.27;1735151;81;98833;-63
2022/04/06 07:56:16;;;;;;;14.95;9.53;;;;;;;9.06;85.91;99211.09;1736489;82;25707;-64
2022/04/06 07:58:43;;;;;;;12.60;8.60;;;;;;;9.11;86.00;99209.48;1736788;82;27458;-64
2022/04/06 08:01:11;;;;;;;11.88;8.88;;;;;;;9.18;86.01;99229.55;1735568;81;98552;-64
2022/04/06 08:03:37;;;;;;;15.03;9.83;;;;;;;9.22;86.00;99219.05;1736507;82;25681;-64
2022/04/06 08:06:06;;;;;;;12.45;8.43;;;;;;;9.26;85.94;99211.23;1735306;82;98603;-63
2022/04/06 08:08:36;;;;;;;14.87;9.15;;;;;;;9.31;86.02;99222.50;1736069;82;25646;-63
2022/04/06 08:11:06;;;;;;;11.15;8.53;;;;;;;9.32;85.86;99222.89;1732886;82;29514;-62
2022/04/06 08:13:35;;;;;;;12.07;8.95;;;;;;;9.36;85.91;99237.80;1731671;81;98442;-63
2022/04/06 08:16:05;;;;;;;13.35;8.80;;;;;;;9.31;85.78;99234.54;1733332;82;25446;-64
2022/04/06 08:18:33;;;;;;;14.10;8.30;;;;;;;9.27;85.91;99238.34;1731398;81;98576;-63
2022/04/06 08:21:00;;;;;;;11.28;7.75;;;;;;;9.23;85.95;99246.65;1749486;80;26047;-64
2022/04/06 08:23:29;;;;;;;15.60;9.28;;;;;;;9.20;86.02;99240.14;1749319;80;99017;-64
2022/04/06 08:25:55;;;;;;;14.80;9.18;;;;;;;9.18;85.80;99236.70;1751988;80;25826;-63
2022/04/06 08:28:23;;;;;;;12.82;8.13;;;;;;;9.18;85.78;99244.25;1754130;80;25772;-62
2022/04/06 08:30:52;;;;;;;16.90;9.18;;;;;;;9.20;85.84;99237.47;1750845;80;98543;-63
2022/04/06 08:33:20;;;;;;;13.90;8.28;;;;;;;9.20;85.79;99251.70;1754581;80;25801;-64
2022/04/06 08:35:46;;;;;;;10.88;7.53;;;;;;;9.27;85.85;99239.69;1753322;80;99080;-63
2022/04/06 08:38:15;;;;;;;17.27;8.08;;;;;;;9.35;85.78;99251.26;1754181;80;26200;-64
2022/04/06 08:40:43;;;;;;;11.88;8.78;;;;;;;9.41;85.71;99250.41;1751649;80;25789;-64
2022/04/06 08:43:11;;;;;;;12.68;8.60;;;;;;;9.47;85.77;99241.15;1752697;80;99089;-64
2022/04/06 08:45:39;;;;;;;14.50;7.78;;;;;;;9.57;85.69;99246.80;1746216;80;26451;-63
2022/04/06 08:48:10;;;;;;;17.45;10.00;;;;;;;9.64;85.54;99240.11;1749445;80;98642;-62
2022/04/06 08:50:39;;;;;;;13.88;7.47;;;;;;;9.69;85.49;99252.25;1753554;80;26489;-62
2022/04/06 08:53:08;;;;;;;;;;;;;;;9.69;85.34;99243.37;1755071;80;26268;-62
2022/04/06 08:55:35;;;;;;;13.88;9.20;;;;;;;9.73;85.27;99236.87;1747819;80;83924;-62
2022/04/06 08:58:05;;;;;;;11.68;7.75;;;;;;;9.86;85.20;99237.83;1755137;80;25864;-63
2022/04/06 09:00:35;;;;;;;13.08;7.92;;;;;;;10.00;85.38;99234.28;1754566;80;98614;-64
2022/04/06 09:03:05;;;;;;;11.30;7.45;;;;;;;10.08;84.90;99246.70;1754387;80;25545;-63
2022/04/06 09:05:34;;;;;;;13.08;7.53;;;;;;;10.14;84.61;99253.48;1749868;80;98833;-64
2022/04/06 09:08:05;;;;;;;11.05;7.35;;;;;;;10.21;84.37;99240.11;1748900;80;27639;-64
2022/04/06 09:10:39;;;;;;;10.50;7.87;;;;;;;10.32;84.11;99241.14;1762366;79;31214;-64
2022/04/06 09:13:20;;;;;;;14.65;7.92;;;;;;;10.41;84.13;99240.99;1754174;79;98713;-64
2022/04/06 09:15:46;;;;;;;14.65;8.50;;;;;;;10.53;83.81;99242.02;1769649;79;26790;-64
2022/04/06 09:18:15;;;;;;;11.25;7.65;;;;;;;10.65;83.44;99239.87;1752139;79;98710;-62
2022/04/06 09:20:45;;;;;;;9.25;7.60;;;;;;;10.73;83.11;99230.36;1771848;79;25928;-62
2022/04/06 09:23:11;;;;;;;11.38;7.72;;;;;;;10.83;82.82;99235.11;1763653;79;25919;-63
2022/04/06 09:25:40;;;;;;;18.52;10.68;;;;;;;10.92;82.59;99235.35;1755792;79;98563;-62
2022/04/06 09:28:16;;;;;;;19.43;9.80;;;;;;;11.02;82.23;99230.23;1758184;79;26075;-62
2022/04/06 09:30:45;;;;;;;14.50;8.40;;;;;;;11.05;81.88;99231.36;1718916;80;98706;-64
2022/04/06 09:33:19;;;;;;;16.25;8.83;;;;;;;11.04;81.46;99233.19;1728050;81;26064;-62
2022/04/06 09:35:46;;;;;;;16.02;9.60;;;;;;;10.98;81.04;99226.03;1735150;81;98907;-61
2022/04/06 09:38:29;;;;;;;16.90;9.65;;;;;;;10.95;80.24;99221.74;1704731;82;27326;-62
2022/04/06 09:41:06;;;;;;;18.25;10.95;;;;;;;10.88;80.31;99228.48;1683700;82;25788;-63
2022/04/06 09:43:34;;;;;;;18.70;11.05;;;;;;;10.82;80.04;99227.55;1721853;80;98885;-64
2022/04/06 09:49:18;;;;;;;17.37;10.53;;;;;;;10.71;79.99;99234.96;1721866;80;98946;-63
2022/04/06 09:51:49;;;;;;;19.35;11.48;;;;;;;10.62;79.55;99242.27;1765551;79;27440;-62
2022/04/06 09:54:15;;;;;;;17.80;11.33;;;;;;;10.59;79.87;99265.25;1759739;79;98936;-62
2022/04/06 09:56:43;;;;;;;22.98;11.90;;;;;;;10.63;79.67;99237.77;1777386;79;26710;-62
2022/04/06 09:59:12;;;;;;;19.17;10.95;;;;;;;10.71;79.58;99234.96;1761372;79;25779;-63
2022/04/06 10:01:52;;;;;;;19.48;10.55;;;;;;;10.76;79.65;99236.48;1761658;79;98741;-63
2022/04/06 10:04:21;;;;;;;16.07;10.53;;;;;;;10.74;79.53;99237.92;1773041;79;28192;-62
2022/04/06 10:06:51;;;;;;;17.60;11.12;;;;;;;10.66;79.44;99227.70;1766389;79;98805;-61
2022/04/06 10:09:16;;;;;;;18.37;11.33;;;;;;;10.56;79.32;99234.63;1771029;79;26206;-62
2022/04/06 10:11:45;;;;;;;21.27;11.38;;;;;;;10.55;79.56;99239.61;1776622;79;99755;-62
2022/04/06 10:14:11;;;;;;;21.82;12.30;;;;;;;10.64;79.56;99251.55;1767786;79;25274;-62
2022/04/06 10:16:41;;;;;;;25.02;11.73;;;;;;;10.74;79.64;99245.48;1770854;79;29562;-62
2022/04/06 10:19:14;;;;;;;29.75;12.25;;;;;;;10.84;79.47;99231.47;1732591;80;98983;-64
2022/04/06 10:21:54;;;;;;;22.13;12.33;;;;;;;10.98;79.57;99231.40;1768805;79;26143;-63
2022/04/06 10:24:59;;;;;;;17.82;11.35;;;;;;;11.12;79.36;99225.96;1768554;79;98928;-64
2022/04/06 10:27:32;;;;;;;27.98;12.75;;;;;;;11.22;79.24;99224.85;1740625;79;26039;-64
2022/04/06 10:30:22;;;;;;;23.80;11.90;;;;;;;11.31;78.82;99222.87;1733717;79;98227;-64
2022/04/06 10:32:51;;;;;;;23.47;12.43;;;;;;;11.41;78.48;99225.78;1762424;79;25873;-65
2022/04/06 10:35:37;;;;;;;20.27;11.08;;;;;;;11.52;78.18;99237.48;1759778;79;25879;-70
2022/04/06 10:38:17;;;;;;;23.42;11.03;;;;;;;11.57;77.43;99227.30;1755478;79;26254;-68
2022/04/06 10:40:55;;;;;;;30.68;11.65;;;;;;;11.69;76.91;99214.36;1765976;79;25804;-69
2022/04/06 10:43:43;;;;;;;24.30;11.22;;;;;;;11.80;76.70;99204.72;1764470;79;98855;-69
2022/04/06 10:46:22;;;;;;;24.07;11.78;;;;;;;11.91;76.13;99226.29;1760420;79;25891;-62
2022/04/06 10:49:01;;;;;;;24.05;11.00;;;;;;;11.98;76.10;99194.86;1759537;79;98974;-63
2022/04/06 10:51:43;;;;;;;25.68;11.40;;;;;;;12.06;75.51;99206.88;1770779;79;26524;-63
2022/04/06 10:54:20;;;;;;;27.45;12.75;;;;;;;12.07;75.45;99194.67;1761539;79;98974;-63
2022/04/06 10:56:53;;;;;;;23.40;12.53;;;;;;;12.16;75.63;99198.52;1764099;79;27454;-63
2022/04/06 10:59:21;;;;;;;21.70;12.07;;;;;;;12.22;75.42;99198.08;1775734;79;26002;-63
2022/04/06 11:01:50;;;;;;;23.95;11.03;;;;;;;12.20;75.26;99201.36;1766555;79;98629;-63
2022/04/06 11:04:22;;;;;;;22.48;10.80;;;;;;;12.14;74.87;99202.66;1735672;80;26815;-63
2022/04/06 11:06:59;;;;;;;20.85;11.45;;;;;;;12.12;74.16;99196.55;1722028;80;99360;-64
2022/04/06 11:12:27;;;;;;;22.20;11.03;;;;;;;12.17;74.79;99192.19;1687708;82;99494;-65
2022/04/06 11:15:14;;;;;;;26.45;10.95;;;;;;;12.32;74.37;99199.13;1722577;81;25758;-64
2022/04/06 11:17:42;;;;;;;20.88;10.15;;;;;;;12.37;74.35;99190.23;1673190;82;25929;-63
2022/04/06 11:20:33;;;;;;;18.10;9.88;;;;;;;12.46;73.95;99192.73;1708647;82;98712;-64
2022/04/06 11:23:00;;;;;;;27.73;11.75;;;;;;;12.56;73.54;99195.11;1702658;82;27491;-64
2022/04/06 11:25:31;;;;;;;18.10;9.73;;;;;;;12.70;73.88;99188.70;1694432;82;98869;-64
2022/04/06 11:28:12;;;;;;;31.25;11.73;;;;;;;12.80;73.21;99191.06;1714195;81;26164;-63
2022/04/06 11:30:46;;;;;;;19.95;10.05;;;;;;;12.80;73.25;99198.64;1718852;81;98856;-64
2022/04/06 11:33:14;;;;;;;17.67;9.85;;;;;;;12.73;72.86;99186.63;1703946;82;26371;-64
2022/04/06 11:35:41;;;;;;;18.80;10.35;;;;;;;12.57;72.40;99180.69;1694379;82;28661;-64
2022/04/06 11:38:08;;;;;;;21.33;10.28;;;;;;;12.39;71.21;99184.75;1721149;81;98659;-63
2022/04/06 11:40:43;;;;;;;20.43;10.50;;;;;;;12.24;72.00;99187.59;1733300;80;25988;-63
2022/04/06 11:43:10;;;;;;;18.00;9.53;;;;;;;12.15;72.18;99184.72;1755643;79;98793;-63
2022/04/06 11:45:44;;;;;;;21.20;9.60;;;;;;;12.07;71.99;99189.31;1765965;79;25764;-63
2022/04/06 11:48:11;;;;;;;18.98;8.55;;;;;;;11.99;71.96;99185.83;1757115;79;98873;-62